createdAt,value
2023-01-30T00:01:39.636Z,14.05
2023-01-30T00:04:06.328Z,14.04
2023-01-30T00:06:32.905Z,14.04
2023-01-30T00:08:59.492Z,14.05
2023-01-30T00:11:28.666Z,14.06
2023-01-30T00:13:55.205Z,14.05
2023-01-30T00:16:21.811Z,14.08
2023-01-30T00:18:48.463Z,14.09
2023-01-30T00:21:15.528Z,14.09
2023-01-30T00:23:42.528Z,14.10
2023-01-30T00:26:10.084Z,14.10
2023-01-30T00:28:37.590Z,14.11
2023-01-30T00:31:04.628Z,14.12
2023-01-30T00:33:31.207Z,14.10
2023-01-30T00:35:58.070Z,14.11
2023-01-30T00:38:25.167Z,14.09
2023-01-30T00:40:52.008Z,14.09
2023-01-30T00:43:38.606Z,14.10
2023-01-30T00:46:32.110Z,14.09
2023-01-30T00:48:58.650Z,14.09
2023-01-30T00:51:25.201Z,14.08
2023-01-30T00:53:51.775Z,14.09
2023-01-30T00:56:18.347Z,14.09
2023-01-30T00:58:44.924Z,14.08
2023-01-30T01:01:11.527Z,14.07
2023-01-30T01:03:38.088Z,14.08
2023-01-30T01:06:04.906Z,14.07
2023-01-30T01:08:31.468Z,14.07
2023-01-30T01:10:58.556Z,14.06
2023-01-30T01:13:25.139Z,14.05
2023-01-30T01:15:51.696Z,14.04
2023-01-30T01:18:18.237Z,14.05
2023-01-30T01:20:44.789Z,14.05
2023-01-30T01:23:11.497Z,14.07
2023-01-30T01:25:38.080Z,14.07
2023-01-30T01:28:04.900Z,14.08
2023-01-30T01:30:31.468Z,14.09
2023-01-30T01:32:58.054Z,14.10
2023-01-30T01:35:24.640Z,14.12
2023-01-30T01:37:54.630Z,14.11
2023-01-30T01:40:40.324Z,14.10
2023-01-30T01:43:18.138Z,14.10
2023-01-30T01:45:45.709Z,14.10
2023-01-30T01:48:16.395Z,14.09
2023-01-30T01:50:48.397Z,14.08
2023-01-30T01:53:18.046Z,14.09
2023-01-30T01:55:46.710Z,14.09
2023-01-30T01:58:21.043Z,14.08
2023-01-30T02:00:48.305Z,14.08
2023-01-30T02:03:22.100Z,14.09
2023-01-30T02:05:51.082Z,14.07
2023-01-30T02:08:28.749Z,14.05
2023-01-30T02:11:07.000Z,14.05
2023-01-30T02:13:34.021Z,14.06
2023-01-30T02:16:02.505Z,14.04
2023-01-30T02:18:29.710Z,14.04
2023-01-30T02:21:41.220Z,14.03
2023-01-30T02:24:46.249Z,14.02
2023-01-30T02:27:42.400Z,14.03
2023-01-30T02:30:33.681Z,14.04
2023-01-30T02:33:00.213Z,14.04
2023-01-30T02:35:42.332Z,14.04
2023-01-30T02:38:42.195Z,14.07
2023-01-30T02:41:18.967Z,14.07
2023-01-30T02:44:05.472Z,14.07
2023-01-30T02:46:37.936Z,14.09
2023-01-30T02:49:29.323Z,14.10
2023-01-30T02:51:56.725Z,14.11
2023-01-30T02:54:23.400Z,14.12
2023-01-30T02:56:52.914Z,14.12
2023-01-30T02:59:28.949Z,14.10
2023-01-30T03:01:59.672Z,14.12
2023-01-30T03:04:43.810Z,14.12
2023-01-30T03:07:25.440Z,14.10
2023-01-30T03:10:01.747Z,14.10
2023-01-30T03:13:10.447Z,14.09
2023-01-30T03:15:43.334Z,14.10
2023-01-30T03:18:10.064Z,14.09
2023-01-30T03:20:38.090Z,14.08
2023-01-30T03:23:07.986Z,14.07
2023-01-30T03:25:36.285Z,14.06
2023-01-30T03:28:03.951Z,14.06
2023-01-30T03:30:30.587Z,14.04
2023-01-30T03:32:57.134Z,14.06
2023-01-30T03:35:24.005Z,14.04
2023-01-30T03:37:50.737Z,14.03
2023-01-30T03:40:17.819Z,14.05
2023-01-30T03:42:44.472Z,14.06
2023-01-30T03:45:11.591Z,14.06
2023-01-30T03:47:38.162Z,14.06
2023-01-30T03:50:05.215Z,14.07
2023-01-30T03:52:31.752Z,14.09
2023-01-30T03:54:58.299Z,14.08
2023-01-30T03:57:24.846Z,14.10
2023-01-30T03:59:51.471Z,14.12
2023-01-30T04:02:23.045Z,14.10
2023-01-30T04:04:49.876Z,14.10
2023-01-30T04:07:16.611Z,14.12
2023-01-30T04:09:43.288Z,14.10
2023-01-30T04:12:09.856Z,14.11
2023-01-30T04:14:36.464Z,14.10
2023-01-30T04:17:03.048Z,14.10
2023-01-30T04:19:29.658Z,14.09
2023-01-30T04:21:56.240Z,14.08
2023-01-30T04:24:23.029Z,14.07
2023-01-30T04:26:49.580Z,14.06
2023-01-30T04:29:16.153Z,14.08
2023-01-30T04:31:42.825Z,14.05
2023-01-30T04:34:09.448Z,14.05
2023-01-30T04:36:36.966Z,14.05
2023-01-30T04:39:03.870Z,14.05
2023-01-30T04:41:30.480Z,14.04
2023-01-30T04:43:57.046Z,14.03
2023-01-30T04:46:23.586Z,14.03
2023-01-30T04:48:50.152Z,14.04
2023-01-30T04:51:16.705Z,14.05
2023-01-30T04:53:43.290Z,14.04
2023-01-30T04:56:09.841Z,14.07
2023-01-30T04:58:36.587Z,14.07
2023-01-30T05:01:14.164Z,14.11
2023-01-30T05:03:40.775Z,14.09
2023-01-30T05:06:07.647Z,14.10
2023-01-30T05:08:34.267Z,14.11
2023-01-30T05:11:00.833Z,14.11
2023-01-30T05:13:27.379Z,14.13
2023-01-30T05:15:53.932Z,14.13
2023-01-30T05:18:20.502Z,14.12
2023-01-30T05:20:47.035Z,14.11
2023-01-30T05:23:13.711Z,14.11
2023-01-30T05:25:40.271Z,14.10
2023-01-30T05:28:06.958Z,14.11
2023-01-30T05:30:33.650Z,14.09
2023-01-30T05:33:00.272Z,14.09
2023-01-30T05:35:26.843Z,14.09
2023-01-30T05:37:53.418Z,14.08
2023-01-30T05:40:20.006Z,14.08
2023-01-30T05:42:46.553Z,14.07
2023-01-30T05:45:13.137Z,14.06
2023-01-30T05:47:39.926Z,14.06
2023-01-30T05:50:06.739Z,14.04
2023-01-30T05:52:33.324Z,14.03
2023-01-30T05:54:59.882Z,14.04
2023-01-30T05:57:26.425Z,14.03
2023-01-30T05:59:55.787Z,14.03
2023-01-30T06:02:22.368Z,14.04
2023-01-30T06:04:48.940Z,14.05
2023-01-30T06:07:15.505Z,14.04
2023-01-30T06:09:42.044Z,14.06
2023-01-30T06:12:08.822Z,14.07
2023-01-30T06:14:35.384Z,14.07
2023-01-30T06:17:01.959Z,14.08
2023-01-30T06:19:28.530Z,14.09
2023-01-30T06:21:55.073Z,14.11
2023-01-30T06:24:21.644Z,14.09
2023-01-30T06:26:48.250Z,14.09
2023-01-30T06:29:14.924Z,14.09
2023-01-30T06:31:41.571Z,14.09
2023-01-30T06:34:08.159Z,14.09
2023-01-30T06:36:34.785Z,14.09
2023-01-30T06:39:01.345Z,14.08
2023-01-30T06:41:27.877Z,14.08
2023-01-30T06:43:55.540Z,14.08
2023-01-30T06:46:22.093Z,14.06
2023-01-30T06:48:48.633Z,14.07
2023-01-30T06:51:15.186Z,14.07
2023-01-30T06:53:41.733Z,14.07
2023-01-30T06:56:08.351Z,14.07
2023-01-30T06:58:34.933Z,14.06
2023-01-30T07:01:02.332Z,14.05
2023-01-30T07:03:28.909Z,14.06
2023-01-30T07:05:55.455Z,14.05
2023-01-30T07:08:24.006Z,14.02
2023-01-30T07:10:51.103Z,14.04
2023-01-30T07:13:17.780Z,14.03
2023-01-30T07:15:44.716Z,14.03
2023-01-30T07:18:11.272Z,14.03
2023-01-30T07:20:37.856Z,14.02
2023-01-30T07:23:04.567Z,14.03
2023-01-30T07:25:31.142Z,14.03
2023-01-30T07:27:59.748Z,14.04
2023-01-30T07:30:28.264Z,14.05
2023-01-30T07:32:57.855Z,14.06
2023-01-30T07:35:25.710Z,14.06
2023-01-30T07:37:52.313Z,14.06
2023-01-30T07:40:20.489Z,14.07
2023-01-30T07:43:00.614Z,14.08
2023-01-30T07:45:44.402Z,14.09
2023-01-30T07:48:12.761Z,14.10
2023-01-30T07:50:39.366Z,14.09
2023-01-30T07:53:07.653Z,14.11
2023-01-30T07:55:34.519Z,14.13
2023-01-30T07:58:01.167Z,14.12
2023-01-30T08:00:27.750Z,14.11
2023-01-30T08:02:54.360Z,14.10
2023-01-30T08:05:20.912Z,14.11
2023-01-30T08:07:47.613Z,14.10
2023-01-30T08:10:14.316Z,14.09
2023-01-30T08:12:41.201Z,14.08
2023-01-30T08:15:09.075Z,14.09
2023-01-30T08:17:35.655Z,14.08
2023-01-30T08:20:02.215Z,14.06
2023-01-30T08:22:29.119Z,14.05
2023-01-30T08:24:55.690Z,14.05
2023-01-30T08:27:22.253Z,14.04
2023-01-30T08:29:48.876Z,14.03
2023-01-30T08:32:15.976Z,14.05
2023-01-30T08:34:42.609Z,14.05
2023-01-30T08:37:09.163Z,14.06
2023-01-30T08:39:37.282Z,14.07
2023-01-30T08:42:04.055Z,14.07
2023-01-30T08:44:30.623Z,14.09
2023-01-30T08:46:57.178Z,14.10
2023-01-30T08:49:23.717Z,14.10
2023-01-30T08:51:50.258Z,14.12
2023-01-30T08:54:16.831Z,14.12
2023-01-30T08:56:43.414Z,14.12
2023-01-30T08:59:09.971Z,14.12
2023-01-30T09:01:38.153Z,14.12
2023-01-30T09:04:04.862Z,14.12
2023-01-30T09:06:31.536Z,14.12
2023-01-30T09:08:59.715Z,14.10
2023-01-30T09:11:26.306Z,14.13
2023-01-30T09:13:53.216Z,14.10
2023-01-30T09:16:19.827Z,14.10
2023-01-30T09:18:46.423Z,14.10
2023-01-30T09:21:13.377Z,14.10
2023-01-30T09:23:40.238Z,14.09
2023-01-30T09:26:06.884Z,14.09
2023-01-30T09:28:34.284Z,14.07
2023-01-30T09:31:01.944Z,14.08
2023-01-30T09:33:28.726Z,14.07
2023-01-30T09:35:55.809Z,14.07
2023-01-30T09:38:22.355Z,14.07
2023-01-30T09:40:57.628Z,14.09
2023-01-30T09:43:46.044Z,14.09
2023-01-30T09:46:35.169Z,14.12
2023-01-30T09:49:15.228Z,14.13
2023-01-30T09:51:53.945Z,14.14
2023-01-30T09:54:32.472Z,14.13
2023-01-30T09:57:22.904Z,14.14
2023-01-30T10:00:12.414Z,14.12
2023-01-30T10:02:45.119Z,14.13
2023-01-30T10:05:12.362Z,14.12
2023-01-30T10:08:16.156Z,14.13
2023-01-30T10:10:55.044Z,14.11
2023-01-30T10:13:47.395Z,14.09
2023-01-30T10:16:20.128Z,14.08
2023-01-30T10:19:00.255Z,14.07
2023-01-30T10:21:47.668Z,14.07
2023-01-30T10:24:46.458Z,14.08
2023-01-30T10:27:16.541Z,14.09
2023-01-30T10:29:53.322Z,14.10
2023-01-30T10:32:41.768Z,14.12
2023-01-30T10:35:20.147Z,14.13
2023-01-30T10:37:50.633Z,14.14
2023-01-30T10:40:34.019Z,14.13
2023-01-30T10:43:13.020Z,14.15
2023-01-30T10:45:49.070Z,14.19
2023-01-30T10:48:46.081Z,14.21
2023-01-30T10:51:47.150Z,14.23
2023-01-30T10:54:19.394Z,14.26
2023-01-30T10:57:02.147Z,14.27
2023-01-30T10:59:50.577Z,14.28
2023-01-30T11:02:25.279Z,14.27
2023-01-30T11:04:59.485Z,14.27
2023-01-30T11:07:32.848Z,14.27
2023-01-30T11:10:00.495Z,14.27
2023-01-30T11:12:27.228Z,14.26
2023-01-30T11:15:00.855Z,14.27
2023-01-30T11:17:30.447Z,14.25
2023-01-30T11:19:58.267Z,14.25
2023-01-30T11:22:28.575Z,14.22
2023-01-30T11:25:09.996Z,14.21
2023-01-30T11:27:37.103Z,14.19
2023-01-30T11:30:22.130Z,14.18
2023-01-30T11:32:49.651Z,14.17
2023-01-30T11:35:16.222Z,14.16
2023-01-30T11:37:44.886Z,14.14
2023-01-30T11:40:17.752Z,14.13
2023-01-30T11:42:49.823Z,14.13
2023-01-30T11:45:18.603Z,14.13
2023-01-30T11:47:57.868Z,14.12
2023-01-30T11:50:33.341Z,14.13
2023-01-30T11:53:33.701Z,14.14
2023-01-30T11:56:08.794Z,14.15
2023-01-30T11:58:39.211Z,14.17
2023-01-30T12:01:09.361Z,14.18
2023-01-30T12:03:39.991Z,14.20
2023-01-30T12:06:06.615Z,14.21
2023-01-30T12:08:44.069Z,14.22
2023-01-30T12:11:47.582Z,14.22
2023-01-30T12:14:32.342Z,14.23
2023-01-30T12:17:12.388Z,14.23
2023-01-30T12:19:54.299Z,14.25
2023-01-30T12:22:26.314Z,14.24
2023-01-30T12:25:00.500Z,14.25
2023-01-30T12:27:43.506Z,14.26
2023-01-30T12:30:21.031Z,14.24
2023-01-30T12:32:47.708Z,14.23
2023-01-30T12:35:19.481Z,14.22
2023-01-30T12:38:18.737Z,14.23
2023-01-30T12:40:51.846Z,14.23
2023-01-30T12:43:24.403Z,14.24
2023-01-30T12:46:12.808Z,14.23
2023-01-30T12:49:12.063Z,14.24
2023-01-30T12:51:54.001Z,14.23
2023-01-30T12:54:30.754Z,14.24
2023-01-30T12:57:19.189Z,14.22
2023-01-30T13:00:23.569Z,14.21
2023-01-30T13:03:10.020Z,14.22
2023-01-30T13:05:53.999Z,14.21
2023-01-30T13:08:55.004Z,14.23
2023-01-30T13:11:37.418Z,14.23
2023-01-30T13:14:07.093Z,14.23
2023-01-30T13:16:42.342Z,14.23
2023-01-30T13:19:25.349Z,14.24
2023-01-30T13:22:22.659Z,14.27
2023-01-30T13:25:04.398Z,14.28
2023-01-30T13:27:35.417Z,14.29
2023-01-30T13:30:05.657Z,14.30
2023-01-30T13:32:43.764Z,14.31
2023-01-30T13:35:22.208Z,14.31
2023-01-30T13:37:49.969Z,14.30
2023-01-30T13:40:20.502Z,14.29
2023-01-30T13:42:53.529Z,14.27
2023-01-30T13:45:22.948Z,14.26
2023-01-30T13:48:08.105Z,14.27
2023-01-30T13:51:04.229Z,14.26
2023-01-30T13:53:58.445Z,14.24
2023-01-30T13:56:43.148Z,14.23
2023-01-30T13:59:40.832Z,14.22
2023-01-30T14:02:09.508Z,14.22
2023-01-30T14:04:43.175Z,14.22
2023-01-30T14:07:12.738Z,14.21
2023-01-30T14:09:45.425Z,14.20
2023-01-30T14:12:19.479Z,14.18
2023-01-30T14:15:12.216Z,14.19
2023-01-30T14:17:39.030Z,14.19
2023-01-30T14:20:15.837Z,14.18
2023-01-30T14:22:54.164Z,14.20
2023-01-30T14:25:23.420Z,14.21
2023-01-30T14:27:52.815Z,14.22
2023-01-30T14:30:31.980Z,14.23
2023-01-30T14:33:00.299Z,14.24
2023-01-30T14:35:33.066Z,14.24
2023-01-30T14:38:08.385Z,14.26
2023-01-30T14:40:36.368Z,14.26
2023-01-30T14:43:12.023Z,14.26
2023-01-30T14:46:01.326Z,14.28
2023-01-30T14:48:28.932Z,14.28
2023-01-30T14:51:29.264Z,14.26
2023-01-30T14:54:14.595Z,14.26
2023-01-30T14:57:06.373Z,14.25
2023-01-30T14:59:39.478Z,14.26
2023-01-30T15:02:15.336Z,14.25
2023-01-30T15:05:29.832Z,14.25
2023-01-30T15:07:58.965Z,14.24
2023-01-30T15:10:59.299Z,14.24
2023-01-30T15:13:57.689Z,14.23
2023-01-30T15:16:34.417Z,14.22
2023-01-30T15:19:14.764Z,14.22
2023-01-30T15:22:12.533Z,14.22
2023-01-30T15:25:36.147Z,14.20
2023-01-30T15:28:17.313Z,14.19
2023-01-30T15:30:57.234Z,14.20
2023-01-30T15:33:31.534Z,14.19
2023-01-30T15:35:59.340Z,14.20
2023-01-30T15:38:33.559Z,14.21
2023-01-30T15:41:05.014Z,14.22
2023-01-30T15:43:50.043Z,14.23
2023-01-30T15:46:49.014Z,14.24
2023-01-30T15:49:47.242Z,14.25
2023-01-30T15:52:18.982Z,14.24
2023-01-30T15:54:51.670Z,14.24
2023-01-30T15:57:26.026Z,14.25
2023-01-30T15:59:54.289Z,14.26
2023-01-30T16:02:28.904Z,14.25
2023-01-30T16:05:24.844Z,14.24
2023-01-30T16:07:53.549Z,14.25
2023-01-30T16:10:25.973Z,14.25
2023-01-30T16:12:56.004Z,14.22
2023-01-30T16:15:44.074Z,14.23
2023-01-30T16:18:39.970Z,14.22
2023-01-30T16:21:10.290Z,14.22
2023-01-30T16:23:41.989Z,14.22
2023-01-30T16:26:13.510Z,14.22
2023-01-30T16:28:40.846Z,14.21
2023-01-30T16:31:09.931Z,14.23
2023-01-30T16:33:37.432Z,14.20
2023-01-30T16:36:26.716Z,14.22
2023-01-30T16:38:54.707Z,14.21
2023-01-30T16:41:39.298Z,14.20
2023-01-30T16:44:18.592Z,14.22
2023-01-30T16:46:56.001Z,14.23
2023-01-30T16:49:27.063Z,14.22
2023-01-30T16:52:03.703Z,14.23
2023-01-30T16:54:31.942Z,14.23
2023-01-30T16:56:59.772Z,14.25
2023-01-30T16:59:34.760Z,14.24
2023-01-30T17:02:03.100Z,14.24
2023-01-30T17:04:31.907Z,14.27
2023-01-30T17:07:04.250Z,14.25
2023-01-30T17:09:46.069Z,14.26
2023-01-30T17:12:35.125Z,14.26
2023-01-30T17:15:13.608Z,14.27
2023-01-30T17:17:40.895Z,14.26
2023-01-30T17:20:08.470Z,14.25
2023-01-30T17:22:35.362Z,14.25
2023-01-30T17:25:03.595Z,14.25
2023-01-30T17:27:30.735Z,14.24
2023-01-30T17:29:57.612Z,14.24
2023-01-30T17:32:24.209Z,14.25
2023-01-30T17:34:50.815Z,14.24
2023-01-30T17:37:20.163Z,14.25
2023-01-30T17:39:47.544Z,14.23
2023-01-30T17:42:15.283Z,14.22
2023-01-30T17:44:42.027Z,14.23
2023-01-30T17:47:11.137Z,14.22
2023-01-30T17:49:37.724Z,14.21
2023-01-30T17:52:04.560Z,14.21
2023-01-30T17:54:31.093Z,14.20
2023-01-30T17:57:05.992Z,14.21
2023-01-30T17:59:32.762Z,14.23
2023-01-30T18:01:59.470Z,14.21
2023-01-30T18:04:26.054Z,14.23
2023-01-30T18:06:55.936Z,14.25
2023-01-30T18:09:27.038Z,14.26
2023-01-30T18:11:53.847Z,14.25
2023-01-30T18:14:22.178Z,14.26
2023-01-30T18:16:49.575Z,14.28
2023-01-30T18:19:24.110Z,14.27
2023-01-30T18:21:50.916Z,14.29
2023-01-30T18:24:18.423Z,14.29
2023-01-30T18:26:45.956Z,14.29
2023-01-30T18:29:13.236Z,14.28
2023-01-30T18:31:40.656Z,14.29
2023-01-30T18:34:07.393Z,14.29
2023-01-30T18:36:35.276Z,14.30
2023-01-30T18:39:01.997Z,14.29
2023-01-30T18:41:29.054Z,14.29
2023-01-30T18:44:01.769Z,14.29
2023-01-30T18:46:28.684Z,14.28
2023-01-30T18:48:56.089Z,14.29
2023-01-30T18:51:25.861Z,14.28
2023-01-30T18:53:53.479Z,14.28
2023-01-30T18:56:22.619Z,14.26
2023-01-30T18:58:56.392Z,14.27
2023-01-30T19:01:28.119Z,14.26
2023-01-30T19:03:56.264Z,14.26
2023-01-30T19:06:23.308Z,14.25
2023-01-30T19:08:49.861Z,14.25
2023-01-30T19:11:36.653Z,14.26
2023-01-30T19:14:03.935Z,14.26
2023-01-30T19:16:31.966Z,14.28
2023-01-30T19:18:58.532Z,14.30
2023-01-30T19:21:25.868Z,14.29
2023-01-30T19:23:53.294Z,14.29
2023-01-30T19:26:21.406Z,14.30
2023-01-30T19:28:48.274Z,14.31
2023-01-30T19:31:18.604Z,14.31
2023-01-30T19:33:48.311Z,14.32
2023-01-30T19:36:21.104Z,14.32
2023-01-30T19:38:48.429Z,14.31
2023-01-30T19:41:16.808Z,14.32
2023-01-30T19:43:43.519Z,14.33
2023-01-30T19:46:11.781Z,14.32
2023-01-30T19:48:39.422Z,14.31
2023-01-30T19:51:22.864Z,14.32
2023-01-30T19:53:57.458Z,14.31
2023-01-30T19:56:25.829Z,14.30
2023-01-30T19:58:54.894Z,14.30
2023-01-30T20:01:23.245Z,14.30
2023-01-30T20:03:49.976Z,14.29
2023-01-30T20:06:21.161Z,14.29
2023-01-30T20:08:50.151Z,14.29
2023-01-30T20:11:21.790Z,14.29
2023-01-30T20:13:48.892Z,14.29
2023-01-30T20:16:20.676Z,14.28
2023-01-30T20:18:56.486Z,14.28
2023-01-30T20:21:23.448Z,14.29
2023-01-30T20:23:50.380Z,14.30
2023-01-30T20:26:19.477Z,14.32
2023-01-30T20:28:46.225Z,14.31
2023-01-30T20:31:20.457Z,14.32
2023-01-30T20:33:47.599Z,14.32
2023-01-30T20:36:18.564Z,14.35
2023-01-30T20:38:46.439Z,14.37
2023-01-30T20:41:18.117Z,14.37
2023-01-30T20:43:47.277Z,14.38
2023-01-30T20:46:21.505Z,14.37
2023-01-30T20:48:48.738Z,14.38
2023-01-30T20:51:18.319Z,14.37
2023-01-30T20:53:50.594Z,14.37
2023-01-30T20:56:18.024Z,14.37
2023-01-30T20:58:44.695Z,14.37
2023-01-30T21:01:17.605Z,14.37
2023-01-30T21:03:46.043Z,14.37
2023-01-30T21:06:12.818Z,14.36
2023-01-30T21:08:40.005Z,14.35
2023-01-30T21:11:10.364Z,14.35
2023-01-30T21:13:37.427Z,14.35
2023-01-30T21:16:08.645Z,14.35
2023-01-30T21:18:37.087Z,14.34
2023-01-30T21:21:04.246Z,14.32
2023-01-30T21:23:31.833Z,14.33
2023-01-30T21:26:04.289Z,14.33
2023-01-30T21:28:32.026Z,14.32
2023-01-30T21:31:19.304Z,14.31
2023-01-30T21:33:46.287Z,14.31
2023-01-30T21:36:13.677Z,14.30
2023-01-30T21:38:59.005Z,14.32
2023-01-30T21:41:46.453Z,14.32
2023-01-30T21:44:14.042Z,14.33
2023-01-30T21:46:43.621Z,14.35
2023-01-30T21:49:10.271Z,14.36
2023-01-30T21:51:37.730Z,14.38
2023-01-30T21:54:04.428Z,14.37
2023-01-30T21:56:31.537Z,14.37
2023-01-30T21:58:59.376Z,14.39
2023-01-30T22:01:26.835Z,14.37
2023-01-30T22:03:53.524Z,14.38
2023-01-30T22:06:20.399Z,14.37
2023-01-30T22:08:46.969Z,14.39
2023-01-30T22:11:19.466Z,14.37
2023-01-30T22:13:46.595Z,14.38
2023-01-30T22:16:15.807Z,14.37
2023-01-30T22:18:44.012Z,14.36
2023-01-30T22:21:12.637Z,14.37
2023-01-30T22:23:44.469Z,14.36
2023-01-30T22:26:13.272Z,14.38
2023-01-30T22:28:40.347Z,14.38
2023-01-30T22:31:18.323Z,14.36
2023-01-30T22:33:53.548Z,14.38
2023-01-30T22:36:20.724Z,14.37
2023-01-30T22:38:49.151Z,14.36
2023-01-30T22:41:20.200Z,14.37
2023-01-30T22:43:49.291Z,14.36
2023-01-30T22:46:18.128Z,14.34
2023-01-30T22:48:45.537Z,14.34
2023-01-30T22:51:17.164Z,14.34
2023-01-30T22:53:46.113Z,14.35
2023-01-30T22:56:15.492Z,14.36
2023-01-30T22:58:42.658Z,14.38
2023-01-30T23:01:20.870Z,14.38
2023-01-30T23:03:49.092Z,14.39
2023-01-30T23:06:17.187Z,14.39
2023-01-30T23:08:46.114Z,14.41
2023-01-30T23:11:38.285Z,14.41
2023-01-30T23:14:13.813Z,14.39
2023-01-30T23:16:42.133Z,14.41
2023-01-30T23:19:10.065Z,14.41
2023-01-30T23:21:39.220Z,14.41
2023-01-30T23:24:07.634Z,14.38
2023-01-30T23:26:36.666Z,14.40
2023-01-30T23:29:07.433Z,14.39
2023-01-30T23:31:34.725Z,14.38
2023-01-30T23:34:03.386Z,14.39
2023-01-30T23:36:30.414Z,14.38
2023-01-30T23:38:58.604Z,14.38
2023-01-30T23:41:30.148Z,14.37
2023-01-30T23:43:57.929Z,14.37
2023-01-30T23:46:28.724Z,14.37
2023-01-30T23:49:06.600Z,14.37
2023-01-30T23:51:35.513Z,14.36
2023-01-30T23:54:02.468Z,14.35
2023-01-30T23:56:30.873Z,14.34
2023-01-30T23:58:57.960Z,14.33
